sensor_id;sensor_type;location;lat;lon;timestamp;P1;durP1;ratioP1;P2;durP2;ratioP2
76210;SDS011;65003;49.518;11.280;2024-02-28T00:01:19;21.67;;;14.33;;
76210;SDS011;65003;49.518;11.280;2024-02-28T00:03:46;21.20;;;13.75;;
76210;SDS011;65003;49.518;11.280;2024-02-28T00:06:15;20.80;;;13.60;;
76210;SDS011;65003;49.518;11.280;2024-02-28T00:08:39;24.73;;;14.67;;
76210;SDS011;65003;49.518;11.280;2024-02-28T00:11:06;21.50;;;14.53;;
76210;SDS011;65003;49.518;11.280;2024-02-28T00:13:32;22.93;;;14.43;;
76210;SDS011;65003;49.518;11.280;2024-02-28T00:15:59;19.97;;;13.13;;
76210;SDS011;65003;49.518;11.280;2024-02-28T00:18:25;21.97;;;13.20;;
76210;SDS011;65003;49.518;11.280;2024-02-28T00:20:52;20.90;;;13.80;;
76210;SDS011;65003;49.518;11.280;2024-02-28T00:23:19;22.00;;;13.40;;
76210;SDS011;65003;49.518;11.280;2024-02-28T00:25:45;19.63;;;13.83;;
76210;SDS011;65003;49.518;11.280;2024-02-28T00:28:12;21.50;;;13.20;;
76210;SDS011;65003;49.518;11.280;2024-02-28T00:30:39;20.77;;;13.43;;
76210;SDS011;65003;49.518;11.280;2024-02-28T00:33:05;22.60;;;14.23;;
76210;SDS011;65003;49.518;11.280;2024-02-28T00:35:32;20.93;;;13.53;;
76210;SDS011;65003;49.518;11.280;2024-02-28T00:37:59;18.40;;;13.10;;
76210;SDS011;65003;49.518;11.280;2024-02-28T00:40:25;25.00;;;14.03;;
76210;SDS011;65003;49.518;11.280;2024-02-28T00:42:52;20.73;;;13.60;;
76210;SDS011;65003;49.518;11.280;2024-02-28T00:45:19;21.70;;;13.60;;
76210;SDS011;65003;49.518;11.280;2024-02-28T00:47:45;20.75;;;12.88;;
76210;SDS011;65003;49.518;11.280;2024-02-28T00:50:12;25.13;;;14.27;;
76210;SDS011;65003;49.518;11.280;2024-02-28T00:52:38;20.67;;;14.27;;
76210;SDS011;65003;49.518;11.280;2024-02-28T00:55:05;20.48;;;13.55;;
76210;SDS011;65003;49.518;11.280;2024-02-28T00:57:33;23.07;;;13.87;;
76210;SDS011;65003;49.518;11.280;2024-02-28T00:59:59;21.80;;;13.70;;
76210;SDS011;65003;49.518;11.280;2024-02-28T01:02:26;23.13;;;14.50;;
76210;SDS011;65003;49.518;11.280;2024-02-28T01:04:53;24.07;;;16.00;;
76210;SDS011;65003;49.518;11.280;2024-02-28T01:07:19;22.87;;;14.53;;
76210;SDS011;65003;49.518;11.280;2024-02-28T01:09:46;20.10;;;13.77;;
76210;SDS011;65003;49.518;11.280;2024-02-28T01:12:12;24.37;;;14.47;;
76210;SDS011;65003;49.518;11.280;2024-02-28T01:14:39;22.67;;;13.97;;
76210;SDS011;65003;49.518;11.280;2024-02-28T01:17:05;21.93;;;14.43;;
76210;SDS011;65003;49.518;11.280;2024-02-28T01:19:32;22.73;;;14.37;;
76210;SDS011;65003;49.518;11.280;2024-02-28T01:21:59;22.00;;;14.27;;
76210;SDS011;65003;49.518;11.280;2024-02-28T01:24:25;20.10;;;13.70;;
76210;SDS011;65003;49.518;11.280;2024-02-28T01:26:52;22.07;;;14.03;;
76210;SDS011;65003;49.518;11.280;2024-02-28T01:29:18;21.00;;;13.60;;
76210;SDS011;65003;49.518;11.280;2024-02-28T01:31:45;23.05;;;15.38;;
76210;SDS011;65003;49.518;11.280;2024-02-28T01:34:12;21.07;;;14.37;;
76210;SDS011;65003;49.518;11.280;2024-02-28T01:36:38;21.80;;;13.80;;
76210;SDS011;65003;49.518;11.280;2024-02-28T01:39:05;22.93;;;14.57;;
76210;SDS011;65003;49.518;11.280;2024-02-28T01:41:31;22.40;;;14.20;;
76210;SDS011;65003;49.518;11.280;2024-02-28T01:43:58;23.73;;;14.93;;
76210;SDS011;65003;49.518;11.280;2024-02-28T01:46:26;21.73;;;13.63;;
76210;SDS011;65003;49.518;11.280;2024-02-28T01:48:53;25.17;;;15.77;;
76210;SDS011;65003;49.518;11.280;2024-02-28T01:51:20;23.07;;;14.23;;
76210;SDS011;65003;49.518;11.280;2024-02-28T01:53:46;24.50;;;14.43;;
76210;SDS011;65003;49.518;11.280;2024-02-28T01:56:13;22.87;;;14.13;;
76210;SDS011;65003;49.518;11.280;2024-02-28T01:58:39;23.80;;;13.57;;
76210;SDS011;65003;49.518;11.280;2024-02-28T02:01:06;26.03;;;14.43;;
76210;SDS011;65003;49.518;11.280;2024-02-28T02:03:33;22.90;;;13.72;;
76210;SDS011;65003;49.518;11.280;2024-02-28T02:06:01;21.50;;;13.23;;
76210;SDS011;65003;49.518;11.280;2024-02-28T02:08:26;22.90;;;14.37;;
76210;SDS011;65003;49.518;11.280;2024-02-28T02:10:53;23.10;;;13.83;;
76210;SDS011;65003;49.518;11.280;2024-02-28T02:13:19;22.80;;;13.87;;
76210;SDS011;65003;49.518;11.280;2024-02-28T02:15:46;22.70;;;13.00;;
76210;SDS011;65003;49.518;11.280;2024-02-28T02:18:12;21.27;;;13.33;;
76210;SDS011;65003;49.518;11.280;2024-02-28T02:20:41;21.50;;;13.67;;
76210;SDS011;65003;49.518;11.280;2024-02-28T02:23:06;21.93;;;14.00;;
76210;SDS011;65003;49.518;11.280;2024-02-28T02:25:32;22.47;;;13.80;;
76210;SDS011;65003;49.518;11.280;2024-02-28T02:27:59;26.80;;;14.67;;
76210;SDS011;65003;49.518;11.280;2024-02-28T02:30:25;23.83;;;13.57;;
76210;SDS011;65003;49.518;11.280;2024-02-28T02:32:52;24.60;;;14.17;;
76210;SDS011;65003;49.518;11.280;2024-02-28T02:35:18;22.73;;;13.47;;
76210;SDS011;65003;49.518;11.280;2024-02-28T02:37:45;21.60;;;14.20;;
76210;SDS011;65003;49.518;11.280;2024-02-28T02:40:12;23.83;;;13.97;;
76210;SDS011;65003;49.518;11.280;2024-02-28T02:42:38;24.40;;;14.73;;
76210;SDS011;65003;49.518;11.280;2024-02-28T02:45:05;21.10;;;14.10;;
76210;SDS011;65003;49.518;11.280;2024-02-28T02:47:32;21.00;;;13.47;;
76210;SDS011;65003;49.518;11.280;2024-02-28T02:49:58;24.57;;;14.23;;
76210;SDS011;65003;49.518;11.280;2024-02-28T02:52:25;21.20;;;12.98;;
76210;SDS011;65003;49.518;11.280;2024-02-28T02:54:52;20.77;;;13.47;;
76210;SDS011;65003;49.518;11.280;2024-02-28T02:57:18;22.83;;;13.17;;
76210;SDS011;65003;49.518;11.280;2024-02-28T02:59:45;21.60;;;13.07;;
76210;SDS011;65003;49.518;11.280;2024-02-28T03:02:11;23.17;;;12.57;;
76210;SDS011;65003;49.518;11.280;2024-02-28T03:04:38;19.98;;;12.33;;
76210;SDS011;65003;49.518;11.280;2024-02-28T03:07:05;22.47;;;13.60;;
76210;SDS011;65003;49.518;11.280;2024-02-28T03:09:31;25.10;;;13.57;;
76210;SDS011;65003;49.518;11.280;2024-02-28T03:11:58;21.90;;;13.00;;
76210;SDS011;65003;49.518;11.280;2024-02-28T03:14:24;22.23;;;13.33;;
76210;SDS011;65003;49.518;11.280;2024-02-28T03:16:51;18.80;;;12.17;;
76210;SDS011;65003;49.518;11.280;2024-02-28T03:19:18;21.37;;;13.63;;
76210;SDS011;65003;49.518;11.280;2024-02-28T03:21:44;23.63;;;12.57;;
76210;SDS011;65003;49.518;11.280;2024-02-28T03:24:11;21.40;;;13.47;;
76210;SDS011;65003;49.518;11.280;2024-02-28T03:26:37;21.77;;;12.47;;
76210;SDS011;65003;49.518;11.280;2024-02-28T03:29:04;19.27;;;12.20;;
76210;SDS011;65003;49.518;11.280;2024-02-28T03:31:30;19.60;;;12.83;;
76210;SDS011;65003;49.518;11.280;2024-02-28T03:33:57;19.97;;;12.67;;
76210;SDS011;65003;49.518;11.280;2024-02-28T03:36:24;23.30;;;12.43;;
76210;SDS011;65003;49.518;11.280;2024-02-28T03:38:50;22.33;;;12.87;;
76210;SDS011;65003;49.518;11.280;2024-02-28T03:41:17;21.07;;;13.13;;
76210;SDS011;65003;49.518;11.280;2024-02-28T03:43:43;20.10;;;12.87;;
76210;SDS011;65003;49.518;11.280;2024-02-28T03:46:10;23.87;;;12.70;;
76210;SDS011;65003;49.518;11.280;2024-02-28T03:48:36;21.07;;;12.23;;
76210;SDS011;65003;49.518;11.280;2024-02-28T03:51:03;21.77;;;12.50;;
76210;SDS011;65003;49.518;11.280;2024-02-28T03:53:30;20.63;;;12.43;;
76210;SDS011;65003;49.518;11.280;2024-02-28T03:55:56;21.43;;;11.60;;
76210;SDS011;65003;49.518;11.280;2024-02-28T03:58:23;19.10;;;11.75;;
76210;SDS011;65003;49.518;11.280;2024-02-28T04:00:50;20.83;;;11.63;;
76210;SDS011;65003;49.518;11.280;2024-02-28T04:03:16;21.97;;;12.60;;
76210;SDS011;65003;49.518;11.280;2024-02-28T04:05:43;20.10;;;12.45;;
76210;SDS011;65003;49.518;11.280;2024-02-28T04:08:09;18.23;;;10.53;;
76210;SDS011;65003;49.518;11.280;2024-02-28T04:10:36;19.43;;;11.67;;
76210;SDS011;65003;49.518;11.280;2024-02-28T04:13:03;17.47;;;10.53;;
76210;SDS011;65003;49.518;11.280;2024-02-28T04:15:30;20.10;;;11.33;;
76210;SDS011;65003;49.518;11.280;2024-02-28T04:17:56;17.17;;;10.47;;
76210;SDS011;65003;49.518;11.280;2024-02-28T04:20:22;17.27;;;10.13;;
76210;SDS011;65003;49.518;11.280;2024-02-28T04:22:49;18.67;;;11.22;;
76210;SDS011;65003;49.518;11.280;2024-02-28T04:25:16;18.30;;;10.40;;
76210;SDS011;65003;49.518;11.280;2024-02-28T04:27:42;19.80;;;10.70;;
76210;SDS011;65003;49.518;11.280;2024-02-28T04:30:09;17.93;;;9.67;;
76210;SDS011;65003;49.518;11.280;2024-02-28T04:32:35;20.08;;;11.48;;
76210;SDS011;65003;49.518;11.280;2024-02-28T04:35:02;17.63;;;10.60;;
76210;SDS011;65003;49.518;11.280;2024-02-28T04:37:29;17.90;;;10.97;;
76210;SDS011;65003;49.518;11.280;2024-02-28T04:39:55;16.60;;;9.73;;
76210;SDS011;65003;49.518;11.280;2024-02-28T04:42:22;16.93;;;10.80;;
76210;SDS011;65003;49.518;11.280;2024-02-28T04:44:48;17.47;;;10.00;;
76210;SDS011;65003;49.518;11.280;2024-02-28T04:47:15;19.27;;;11.37;;
76210;SDS011;65003;49.518;11.280;2024-02-28T04:49:42;16.80;;;10.60;;
76210;SDS011;65003;49.518;11.280;2024-02-28T04:52:08;18.43;;;11.67;;
76210;SDS011;65003;49.518;11.280;2024-02-28T04:54:35;19.80;;;12.23;;
76210;SDS011;65003;49.518;11.280;2024-02-28T04:57:01;17.67;;;10.57;;
76210;SDS011;65003;49.518;11.280;2024-02-28T04:59:28;20.37;;;11.80;;
76210;SDS011;65003;49.518;11.280;2024-02-28T05:01:55;16.67;;;10.53;;
76210;SDS011;65003;49.518;11.280;2024-02-28T05:04:21;17.17;;;11.33;;
76210;SDS011;65003;49.518;11.280;2024-02-28T05:06:48;18.57;;;10.57;;
76210;SDS011;65003;49.518;11.280;2024-02-28T05:09:14;17.30;;;10.03;;
76210;SDS011;65003;49.518;11.280;2024-02-28T05:11:41;19.10;;;11.03;;
76210;SDS011;65003;49.518;11.280;2024-02-28T05:14:08;18.33;;;11.23;;
76210;SDS011;65003;49.518;11.280;2024-02-28T05:16:34;21.47;;;11.87;;
76210;SDS011;65003;49.518;11.280;2024-02-28T05:19:01;21.20;;;11.87;;
76210;SDS011;65003;49.518;11.280;2024-02-28T05:21:27;17.60;;;11.40;;
76210;SDS011;65003;49.518;11.280;2024-02-28T05:23:54;19.60;;;11.13;;
76210;SDS011;65003;49.518;11.280;2024-02-28T05:26:20;20.37;;;12.00;;
76210;SDS011;65003;49.518;11.280;2024-02-28T05:28:47;19.02;;;11.45;;
76210;SDS011;65003;49.518;11.280;2024-02-28T05:31:20;19.23;;;10.60;;
76210;SDS011;65003;49.518;11.280;2024-02-28T05:33:46;20.17;;;11.60;;
76210;SDS011;65003;49.518;11.280;2024-02-28T05:36:12;20.63;;;11.87;;
76210;SDS011;65003;49.518;11.280;2024-02-28T05:38:39;19.70;;;11.13;;
76210;SDS011;65003;49.518;11.280;2024-02-28T05:41:06;16.57;;;11.10;;
76210;SDS011;65003;49.518;11.280;2024-02-28T05:43:32;19.17;;;11.70;;
76210;SDS011;65003;49.518;11.280;2024-02-28T05:45:59;20.33;;;11.97;;
76210;SDS011;65003;49.518;11.280;2024-02-28T05:48:25;19.37;;;10.67;;
76210;SDS011;65003;49.518;11.280;2024-02-28T05:50:52;18.00;;;11.07;;
76210;SDS011;65003;49.518;11.280;2024-02-28T05:53:18;16.53;;;10.47;;
76210;SDS011;65003;49.518;11.280;2024-02-28T05:55:45;20.27;;;11.55;;
76210;SDS011;65003;49.518;11.280;2024-02-28T05:58:13;18.33;;;11.27;;
76210;SDS011;65003;49.518;11.280;2024-02-28T06:00:38;16.07;;;10.07;;
76210;SDS011;65003;49.518;11.280;2024-02-28T06:03:05;18.33;;;11.03;;
76210;SDS011;65003;49.518;11.280;2024-02-28T06:05:31;19.40;;;11.00;;
76210;SDS011;65003;49.518;11.280;2024-02-28T06:07:58;17.87;;;9.87;;
76210;SDS011;65003;49.518;11.280;2024-02-28T06:10:25;15.73;;;9.83;;
76210;SDS011;65003;49.518;11.280;2024-02-28T06:12:51;17.87;;;10.70;;
76210;SDS011;65003;49.518;11.280;2024-02-28T06:15:18;16.30;;;9.43;;
76210;SDS011;65003;49.518;11.280;2024-02-28T06:17:44;17.17;;;9.63;;
76210;SDS011;65003;49.518;11.280;2024-02-28T06:20:11;17.67;;;9.43;;
76210;SDS011;65003;49.518;11.280;2024-02-28T06:22:37;16.90;;;9.87;;
76210;SDS011;65003;49.518;11.280;2024-02-28T06:25:04;16.67;;;9.53;;
76210;SDS011;65003;49.518;11.280;2024-02-28T06:27:31;14.20;;;8.80;;
76210;SDS011;65003;49.518;11.280;2024-02-28T06:29:59;16.03;;;9.13;;
76210;SDS011;65003;49.518;11.280;2024-02-28T06:32:25;15.47;;;9.30;;
76210;SDS011;65003;49.518;11.280;2024-02-28T06:34:52;14.27;;;9.23;;
76210;SDS011;65003;49.518;11.280;2024-02-28T06:37:19;16.07;;;9.20;;
76210;SDS011;65003;49.518;11.280;2024-02-28T06:39:45;16.20;;;9.10;;
76210;SDS011;65003;49.518;11.280;2024-02-28T06:42:12;14.67;;;9.30;;
76210;SDS011;65003;49.518;11.280;2024-02-28T06:44:38;14.47;;;8.65;;
76210;SDS011;65003;49.518;11.280;2024-02-28T06:47:05;16.40;;;9.63;;
76210;SDS011;65003;49.518;11.280;2024-02-28T06:49:31;17.77;;;9.17;;
76210;SDS011;65003;49.518;11.280;2024-02-28T06:51:58;13.98;;;8.48;;
76210;SDS011;65003;49.518;11.280;2024-02-28T06:54:25;15.27;;;9.00;;
76210;SDS011;65003;49.518;11.280;2024-02-28T06:56:51;14.93;;;8.67;;
76210;SDS011;65003;49.518;11.280;2024-02-28T06:59:18;14.47;;;8.90;;
76210;SDS011;65003;49.518;11.280;2024-02-28T07:01:44;17.83;;;9.37;;
76210;SDS011;65003;49.518;11.280;2024-02-28T07:04:11;15.57;;;8.70;;
76210;SDS011;65003;49.518;11.280;2024-02-28T07:06:37;12.23;;;8.87;;
76210;SDS011;65003;49.518;11.280;2024-02-28T07:09:04;14.63;;;8.73;;
76210;SDS011;65003;49.518;11.280;2024-02-28T07:11:31;12.30;;;8.97;;
76210;SDS011;65003;49.518;11.280;2024-02-28T07:13:57;14.23;;;8.87;;
76210;SDS011;65003;49.518;11.280;2024-02-28T07:16:24;12.90;;;8.87;;
76210;SDS011;65003;49.518;11.280;2024-02-28T07:18:50;13.80;;;8.60;;
76210;SDS011;65003;49.518;11.280;2024-02-28T07:21:17;13.70;;;8.70;;
76210;SDS011;65003;49.518;11.280;2024-02-28T07:23:44;16.12;;;8.90;;
76210;SDS011;65003;49.518;11.280;2024-02-28T07:26:14;13.33;;;8.27;;
76210;SDS011;65003;49.518;11.280;2024-02-28T07:28:40;14.37;;;8.60;;
76210;SDS011;65003;49.518;11.280;2024-02-28T07:31:07;13.67;;;8.83;;
76210;SDS011;65003;49.518;11.280;2024-02-28T07:33:33;13.20;;;8.57;;
76210;SDS011;65003;49.518;11.280;2024-02-28T07:36:00;12.87;;;8.33;;
76210;SDS011;65003;49.518;11.280;2024-02-28T07:38:27;15.77;;;8.93;;
76210;SDS011;65003;49.518;11.280;2024-02-28T07:40:53;12.73;;;7.97;;
76210;SDS011;65003;49.518;11.280;2024-02-28T07:43:20;11.47;;;8.00;;
76210;SDS011;65003;49.518;11.280;2024-02-28T07:45:46;11.63;;;7.77;;
76210;SDS011;65003;49.518;11.280;2024-02-28T07:48:13;13.27;;;8.37;;
76210;SDS011;65003;49.518;11.280;2024-02-28T07:50:39;12.15;;;8.25;;
76210;SDS011;65003;49.518;11.280;2024-02-28T07:53:06;16.10;;;8.63;;
76210;SDS011;65003;49.518;11.280;2024-02-28T07:55:33;12.43;;;8.20;;
76210;SDS011;65003;49.518;11.280;2024-02-28T07:57:59;12.87;;;8.73;;
76210;SDS011;65003;49.518;11.280;2024-02-28T08:00:26;13.77;;;8.93;;
76210;SDS011;65003;49.518;11.280;2024-02-28T08:02:52;13.17;;;8.00;;
76210;SDS011;65003;49.518;11.280;2024-02-28T08:05:19;13.80;;;8.60;;
76210;SDS011;65003;49.518;11.280;2024-02-28T08:07:46;13.87;;;9.73;;
76210;SDS011;65003;49.518;11.280;2024-02-28T08:10:12;15.77;;;9.27;;
76210;SDS011;65003;49.518;11.280;2024-02-28T08:12:39;13.50;;;8.67;;
76210;SDS011;65003;49.518;11.280;2024-02-28T08:15:05;16.30;;;9.23;;
76210;SDS011;65003;49.518;11.280;2024-02-28T08:17:32;15.37;;;9.03;;
76210;SDS011;65003;49.518;11.280;2024-02-28T08:19:59;16.67;;;9.20;;
76210;SDS011;65003;49.518;11.280;2024-02-28T08:22:25;15.70;;;10.17;;
76210;SDS011;65003;49.518;11.280;2024-02-28T08:24:52;18.63;;;11.03;;
76210;SDS011;65003;49.518;11.280;2024-02-28T08:27:18;14.63;;;9.07;;
76210;SDS011;65003;49.518;11.280;2024-02-28T08:29:45;16.43;;;9.30;;
76210;SDS011;65003;49.518;11.280;2024-02-28T08:32:12;15.33;;;9.67;;
76210;SDS011;65003;49.518;11.280;2024-02-28T08:34:38;16.17;;;9.63;;
76210;SDS011;65003;49.518;11.280;2024-02-28T08:37:05;20.43;;;10.17;;
76210;SDS011;65003;49.518;11.280;2024-02-28T08:39:31;15.70;;;9.50;;
76210;SDS011;65003;49.518;11.280;2024-02-28T08:41:58;14.37;;;9.07;;
76210;SDS011;65003;49.518;11.280;2024-02-28T08:44:24;20.07;;;10.17;;
76210;SDS011;65003;49.518;11.280;2024-02-28T08:46:51;17.33;;;9.33;;
76210;SDS011;65003;49.518;11.280;2024-02-28T08:49:18;14.80;;;9.57;;
76210;SDS011;65003;49.518;11.280;2024-02-28T08:51:44;13.13;;;8.67;;
76210;SDS011;65003;49.518;11.280;2024-02-28T08:54:11;15.57;;;9.93;;
76210;SDS011;65003;49.518;11.280;2024-02-28T08:56:37;18.25;;;10.58;;
76210;SDS011;65003;49.518;11.280;2024-02-28T08:59:04;16.47;;;8.70;;
76210;SDS011;65003;49.518;11.280;2024-02-28T09:01:31;14.97;;;9.53;;
76210;SDS011;65003;49.518;11.280;2024-02-28T09:03:57;14.77;;;9.27;;
76210;SDS011;65003;49.518;11.280;2024-02-28T09:06:24;14.63;;;8.63;;
76210;SDS011;65003;49.518;11.280;2024-02-28T09:08:50;14.90;;;9.07;;
76210;SDS011;65003;49.518;11.280;2024-02-28T09:11:17;15.67;;;8.87;;
76210;SDS011;65003;49.518;11.280;2024-02-28T09:13:44;14.37;;;9.60;;
76210;SDS011;65003;49.518;11.280;2024-02-28T09:16:10;12.45;;;8.78;;
76210;SDS011;65003;49.518;11.280;2024-02-28T09:18:37;12.30;;;9.00;;
76210;SDS011;65003;49.518;11.280;2024-02-28T09:21:03;12.47;;;8.87;;
76210;SDS011;65003;49.518;11.280;2024-02-28T09:23:30;12.03;;;8.37;;
76210;SDS011;65003;49.518;11.280;2024-02-28T09:25:56;16.07;;;9.60;;
76210;SDS011;65003;49.518;11.280;2024-02-28T09:28:23;12.93;;;7.97;;
76210;SDS011;65003;49.518;11.280;2024-02-28T09:30:50;11.73;;;7.73;;
76210;SDS011;65003;49.518;11.280;2024-02-28T09:33:16;10.17;;;7.13;;
76210;SDS011;65003;49.518;11.280;2024-02-28T09:35:43;13.45;;;8.55;;
76210;SDS011;65003;49.518;11.280;2024-02-28T09:38:10;9.50;;;7.10;;
76210;SDS011;65003;49.518;11.280;2024-02-28T09:40:36;12.97;;;8.00;;
76210;SDS011;65003;49.518;11.280;2024-02-28T09:43:03;13.17;;;8.63;;
76210;SDS011;65003;49.518;11.280;2024-02-28T09:45:30;12.30;;;7.80;;
76210;SDS011;65003;49.518;11.280;2024-02-28T09:47:56;13.38;;;8.78;;
76210;SDS011;65003;49.518;11.280;2024-02-28T09:50:22;14.07;;;9.83;;
76210;SDS011;65003;49.518;11.280;2024-02-28T09:52:49;11.13;;;8.00;;
76210;SDS011;65003;49.518;11.280;2024-02-28T09:55:16;11.27;;;7.90;;
76210;SDS011;65003;49.518;11.280;2024-02-28T09:57:42;15.77;;;8.23;;
76210;SDS011;65003;49.518;11.280;2024-02-28T10:00:09;11.53;;;8.27;;
76210;SDS011;65003;49.518;11.280;2024-02-28T10:02:36;13.35;;;8.60;;
76210;SDS011;65003;49.518;11.280;2024-02-28T10:05:03;11.20;;;7.50;;
76210;SDS011;65003;49.518;11.280;2024-02-28T10:07:29;9.77;;;7.47;;
76210;SDS011;65003;49.518;11.280;2024-02-28T10:09:56;11.07;;;7.83;;
76210;SDS011;65003;49.518;11.280;2024-02-28T10:12:23;12.80;;;7.67;;
76210;SDS011;65003;49.518;11.280;2024-02-28T10:14:49;11.37;;;7.33;;
76210;SDS011;65003;49.518;11.280;2024-02-28T10:17:16;10.93;;;8.17;;
76210;SDS011;65003;49.518;11.280;2024-02-28T10:19:42;11.30;;;8.17;;
76210;SDS011;65003;49.518;11.280;2024-02-28T10:22:09;11.27;;;8.27;;
76210;SDS011;65003;49.518;11.280;2024-02-28T10:24:35;11.80;;;7.97;;
76210;SDS011;65003;49.518;11.280;2024-02-28T10:27:02;11.97;;;7.50;;
76210;SDS011;65003;49.518;11.280;2024-02-28T10:29:29;9.97;;;7.43;;
76210;SDS011;65003;49.518;11.280;2024-02-28T10:31:55;12.53;;;7.80;;
76210;SDS011;65003;49.518;11.280;2024-02-28T10:34:22;10.77;;;7.53;;
76210;SDS011;65003;49.518;11.280;2024-02-28T10:36:49;12.30;;;7.10;;
76210;SDS011;65003;49.518;11.280;2024-02-28T10:39:15;10.07;;;7.20;;
76210;SDS011;65003;49.518;11.280;2024-02-28T10:41:42;10.70;;;7.08;;
76210;SDS011;65003;49.518;11.280;2024-02-28T10:44:09;10.40;;;6.67;;
76210;SDS011;65003;49.518;11.280;2024-02-28T10:46:37;10.67;;;6.77;;
76210;SDS011;65003;49.518;11.280;2024-02-28T10:49:02;12.23;;;7.83;;
76210;SDS011;65003;49.518;11.280;2024-02-28T10:51:29;9.43;;;6.93;;
76210;SDS011;65003;49.518;11.280;2024-02-28T10:54:02;9.70;;;7.73;;
76210;SDS011;65003;49.518;11.280;2024-02-28T10:56:28;12.70;;;8.00;;
76210;SDS011;65003;49.518;11.280;2024-02-28T10:58:55;11.07;;;8.27;;
76210;SDS011;65003;49.518;11.280;2024-02-28T11:01:21;13.10;;;8.37;;
76210;SDS011;65003;49.518;11.280;2024-02-28T11:03:48;12.50;;;8.40;;
76210;SDS011;65003;49.518;11.280;2024-02-28T11:06:17;10.20;;;7.27;;
76210;SDS011;65003;49.518;11.280;2024-02-28T11:08:45;12.45;;;8.00;;
76210;SDS011;65003;49.518;11.280;2024-02-28T11:11:13;10.20;;;7.50;;
76210;SDS011;65003;49.518;11.280;2024-02-28T11:13:37;12.23;;;7.23;;
76210;SDS011;65003;49.518;11.280;2024-02-28T11:16:07;11.80;;;7.87;;
76210;SDS011;65003;49.518;11.280;2024-02-28T11:18:33;10.55;;;7.60;;
76210;SDS011;65003;49.518;11.280;2024-02-28T11:21:00;11.30;;;7.57;;
76210;SDS011;65003;49.518;11.280;2024-02-28T11:23:34;10.33;;;8.07;;
76210;SDS011;65003;49.518;11.280;2024-02-28T11:25:53;11.30;;;7.73;;
76210;SDS011;65003;49.518;11.280;2024-02-28T11:28:20;11.10;;;8.20;;
76210;SDS011;65003;49.518;11.280;2024-02-28T11:30:46;9.90;;;7.53;;
76210;SDS011;65003;49.518;11.280;2024-02-28T11:33:13;11.33;;;7.53;;
76210;SDS011;65003;49.518;11.280;2024-02-28T11:35:39;12.70;;;7.90;;
76210;SDS011;65003;49.518;11.280;2024-02-28T11:38:06;12.17;;;8.20;;
76210;SDS011;65003;49.518;11.280;2024-02-28T11:40:32;13.17;;;7.43;;
76210;SDS011;65003;49.518;11.280;2024-02-28T11:42:59;11.37;;;7.77;;
76210;SDS011;65003;49.518;11.280;2024-02-28T11:45:26;9.57;;;7.57;;
76210;SDS011;65003;49.518;11.280;2024-02-28T11:47:52;11.50;;;8.20;;
76210;SDS011;65003;49.518;11.280;2024-02-28T11:50:19;10.23;;;7.70;;
76210;SDS011;65003;49.518;11.280;2024-02-28T11:52:45;10.57;;;7.70;;
76210;SDS011;65003;49.518;11.280;2024-02-28T11:55:12;11.73;;;8.60;;
76210;SDS011;65003;49.518;11.280;2024-02-28T11:57:39;11.73;;;8.03;;
76210;SDS011;65003;49.518;11.280;2024-02-28T12:00:06;11.20;;;7.87;;
76210;SDS011;65003;49.518;11.280;2024-02-28T12:02:33;12.47;;;7.97;;
76210;SDS011;65003;49.518;11.280;2024-02-28T12:05:01;12.67;;;8.00;;
76210;SDS011;65003;49.518;11.280;2024-02-28T12:07:27;12.97;;;8.87;;
76210;SDS011;65003;49.518;11.280;2024-02-28T12:09:54;12.05;;;8.53;;
76210;SDS011;65003;49.518;11.280;2024-02-28T12:12:21;11.67;;;8.70;;
76210;SDS011;65003;49.518;11.280;2024-02-28T12:14:46;12.43;;;8.23;;
76210;SDS011;65003;49.518;11.280;2024-02-28T12:17:14;12.40;;;8.20;;
76210;SDS011;65003;49.518;11.280;2024-02-28T12:19:41;14.00;;;9.23;;
76210;SDS011;65003;49.518;11.280;2024-02-28T12:22:07;12.33;;;8.57;;
76210;SDS011;65003;49.518;11.280;2024-02-28T12:24:34;9.83;;;7.67;;
76210;SDS011;65003;49.518;11.280;2024-02-28T12:27:00;11.30;;;8.13;;
76210;SDS011;65003;49.518;11.280;2024-02-28T12:29:27;12.60;;;8.63;;
76210;SDS011;65003;49.518;11.280;2024-02-28T12:31:53;12.50;;;7.80;;
76210;SDS011;65003;49.518;11.280;2024-02-28T12:34:20;11.83;;;8.20;;
76210;SDS011;65003;49.518;11.280;2024-02-28T12:36:47;12.03;;;8.13;;
76210;SDS011;65003;49.518;11.280;2024-02-28T12:39:13;9.73;;;6.93;;
76210;SDS011;65003;49.518;11.280;2024-02-28T12:41:40;13.98;;;8.03;;
76210;SDS011;65003;49.518;11.280;2024-02-28T12:44:06;11.30;;;8.10;;
76210;SDS011;65003;49.518;11.280;2024-02-28T12:46:33;11.03;;;7.87;;
76210;SDS011;65003;49.518;11.280;2024-02-28T12:48:59;11.33;;;8.23;;
76210;SDS011;65003;49.518;11.280;2024-02-28T12:54:01;11.67;;;8.07;;
76210;SDS011;65003;49.518;11.280;2024-02-28T12:56:28;10.33;;;7.27;;
76210;SDS011;65003;49.518;11.280;2024-02-28T12:58:55;9.53;;;7.57;;
76210;SDS011;65003;49.518;11.280;2024-02-28T13:01:21;11.07;;;8.50;;
76210;SDS011;65003;49.518;11.280;2024-02-28T13:03:48;10.70;;;7.70;;
76210;SDS011;65003;49.518;11.280;2024-02-28T13:06:14;11.77;;;8.40;;
76210;SDS011;65003;49.518;11.280;2024-02-28T13:08:41;12.07;;;8.40;;
76210;SDS011;65003;49.518;11.280;2024-02-28T13:11:07;12.77;;;8.30;;
76210;SDS011;65003;49.518;11.280;2024-02-28T13:13:34;11.70;;;7.87;;
76210;SDS011;65003;49.518;11.280;2024-02-28T13:16:01;11.40;;;7.47;;
76210;SDS011;65003;49.518;11.280;2024-02-28T13:18:27;11.60;;;8.03;;
76210;SDS011;65003;49.518;11.280;2024-02-28T13:20:54;13.63;;;8.00;;
76210;SDS011;65003;49.518;11.280;2024-02-28T13:23:20;12.07;;;8.03;;
76210;SDS011;65003;49.518;11.280;2024-02-28T13:25:47;14.80;;;9.33;;
76210;SDS011;65003;49.518;11.280;2024-02-28T13:28:14;10.57;;;7.30;;
76210;SDS011;65003;49.518;11.280;2024-02-28T13:30:40;11.10;;;8.63;;
76210;SDS011;65003;49.518;11.280;2024-02-28T13:33:07;11.40;;;8.27;;
76210;SDS011;65003;49.518;11.280;2024-02-28T13:35:33;11.97;;;8.50;;
76210;SDS011;65003;49.518;11.280;2024-02-28T13:38:00;10.50;;;7.93;;
76210;SDS011;65003;49.518;11.280;2024-02-28T13:40:27;10.77;;;7.77;;
76210;SDS011;65003;49.518;11.280;2024-02-28T13:42:53;11.60;;;7.83;;
76210;SDS011;65003;49.518;11.280;2024-02-28T13:45:20;9.57;;;6.93;;
76210;SDS011;65003;49.518;11.280;2024-02-28T13:47:46;9.60;;;7.80;;
76210;SDS011;65003;49.518;11.280;2024-02-28T13:50:13;12.37;;;8.20;;
76210;SDS011;65003;49.518;11.280;2024-02-28T13:52:39;11.17;;;7.40;;
76210;SDS011;65003;49.518;11.280;2024-02-28T13:55:06;12.20;;;8.03;;
76210;SDS011;65003;49.518;11.280;2024-02-28T13:57:33;9.98;;;7.55;;
76210;SDS011;65003;49.518;11.280;2024-02-28T14:00:00;10.97;;;7.77;;
76210;SDS011;65003;49.518;11.280;2024-02-28T14:02:26;10.97;;;7.53;;
76210;SDS011;65003;49.518;11.280;2024-02-28T14:04:54;12.20;;;7.87;;
76210;SDS011;65003;49.518;11.280;2024-02-28T14:07:20;12.77;;;8.40;;
76210;SDS011;65003;49.518;11.280;2024-02-28T14:09:46;8.40;;;7.08;;
76210;SDS011;65003;49.518;11.280;2024-02-28T14:12:13;13.07;;;8.27;;
76210;SDS011;65003;49.518;11.280;2024-02-28T14:14:39;10.03;;;7.73;;